Tiempo atmosférico en la estación meteorológica de Villardeciervos, Zamora (850 m.)



Fecha
DESCASC
Temp. máxima en grados centígrados (hora)
DESCASC
Temp. mínima en grados centígrados (hora)
DESCASC
Temp. media en grados centígrados
DESCASC
Racha de viento máxima en m/sg (hora)
DESCASC
Velocidad máxima media en intervalos de 10 minutos(hora)
DESCASC
Precipitaciones diarias en mm
DESCASC
Precipitaciones de 00:00 a 06:00 en mm
DESCASC
Precipitaciones de 06:00 a 12:00 en mm
DESCASC
Precipitaciones de 12:00 a 18:00 en mm
DESCASC
Precipitaciones de 18:00 a 24:00 en mm
DESCASC
19-09-2019 27.2 (17:00) 9.7 (08:10) 18.5 6.11 (18:10) 2.78 (17:20) 0 0 0 0 0
18-09-2019 27.1 (17:30) 11 (04:50) 19.1 5.83 (15:20) 3.06 (19:00) 0.2 0 0 0.2 0
17-09-2019 27.1 (16:00) 11.4 (00:00) 19.3 14.17 (18:40) 6.39 (18:40) 20.2 0 0 1.8 18.4
16-09-2019 25.1 (16:20) 11 (00:00) 18.1 7.78 (19:20) 3.61 (19:40) 1.2 0 1.2 0 0
15-09-2019 23.7 (17:10) 12.5 (00:00) 18.1 10 (13:30) 4.44 (13:30) 7.2 0 4.2 3 0
14-09-2019 27.3 (16:10) 12.8 (00:00) 20 13.33 (14:30) 6.11 (14:20) 0 0 0 0 0
13-09-2019 29.5 (16:20) 9.1 (00:00) 19.3 14.72 (18:40) 7.5 (18:40) 0 0 0 0 0
12-09-2019 28.4 (17:30) 4.9 (00:00) 16.6 8.33 (13:30) 3.89 (13:30) 0 0 0 0 0
11-09-2019 24.6 (16:50) 3.6 (00:00) 14.1 9.72 (12:30) 4.44 (12:30) 0 0 0 0 0
10-09-2019 22.3 (15:50) 7.7 (06:20) 15 13.06 (16:20) 6.94 (16:30) 0 0 0 0 0
09-09-2019 24.5 (17:30) 4.2 (05:40) 14.3 11.11 (19:10) 6.11 (19:10) 0 0 0 0 0
08-09-2019 28.3 (17:50) 3.7 (00:00) 16 7.22 (11:20) 3.61 (11:20) 0 0 0 0 0
07-09-2019 25 (17:30) 4.6 (00:00) 14.8 11.67 (14:40) 5.28 (15:50) 0 0 0 0 0
06-09-2019 22.6 (17:30) 3.4 (00:00) 13 12.22 (10:50) 5 (15:50) 0 0 0 0 0
05-09-2019 23.3 (16:40) 8.9 (00:00) 16.1 11.11 (11:20) 5.28 (12:30) 0 0 0 0 0
04-09-2019 32.4 (17:20) 7 (00:00) 19.7 11.67 (20:50) 3.89 (19:10) 0 0 0 0 0
03-09-2019 31.6 (17:10) 4.8 (00:00) 18.2 6.67 (18:00) 3.33 (17:10) 0 0 0 0 0
02-09-2019 26.8 (17:20) 8.8 (00:00) 17.8 10.83 (13:00) 4.72 (12:30) 0 0 0 0 0
01-09-2019 29.5 (16:30) 9.8 (00:00) 19.7 8.89 (21:10) 3.61 (21:10) 0 0 0 0 0
31-08-2019 31.3 (15:30) 11.4 (00:00) 21.3 10.83 (16:50) 5.56 (16:50) 0 0 0 0 0
30-08-2019 31.8 (16:40) 10.4 (00:00) 21.1 11.94 (15:10) 5.83 (16:50) 0 0 0 0 0
29-08-2019 31.6 (17:40) 10.8 (00:00) 21.2 9.44 (16:20) 4.17 (16:00) 0 0 0 0 0
28-08-2019 29.3 (17:30) 10.3 (00:00) 19.8 9.44 (14:50) 4.44 (14:50) 0 0 0 0 0
27-08-2019 29.2 (17:20) 9.4 (00:00) 19.3 7.5 (14:40) 3.61 (16:20) 0 0 0 0 0
26-08-2019 25 (18:40) 13.5 (00:00) 19.3 9.17 (05:50) 3.61 (05:50) 1.8 1.8 0 0 0
25-08-2019 30.5 (13:50) 13.2 (00:00) 21.8 17.5 (16:20) 8.33 (16:20) 4 0 0 0.4 3.6
24-08-2019 32.7 (17:20) 10.7 (00:00) 21.7 10.28 (16:10) 5 (16:10) 0 0 0 0 0
23-08-2019 33.2 (18:20) 6 (00:00) 19.6 8.61 (17:30) 3.89 (17:30) 0 0 0 0 0

Gráficas

Temp. máximas Temp. mínimas Temp. medias Precipitaciones Rachas de viento máximas Velocidades máximas media en intervalos de 10 minutos

Datos horarios

Fecha y hora oficial Temperatura (ºC) Velocidad del viento (km/h) Dirección del viento Racha (km/h) Dirección de racha Precipitación (mm) Presión (hPa) Tendencia (hPa) Humedad (%)
2019-09-21 23:00:00 12.9 20 Oeste 52 Sudoeste 2 913.8 0.9 85
2019-09-21 22:00:00 15.1 18 Sur 51 Sur 1.8 912.8 -0.3 89
2019-09-21 21:00:00 15.1 19 Sur 45 Sudoeste 1.2 912.6 -0.6 88
2019-09-21 20:00:00 15.3 18 Sur 44 Sur 1 912.9 -0.5 87
2019-09-21 19:00:00 15.6 16 Sur 51 Sudoeste 0.8 913.1 -0.6 87
2019-09-21 18:00:00 15.9 22 Sudoeste 50 Sudoeste 0.8 913.2 -0.8 86
2019-09-21 17:00:00 15.9 14 Sur 36 Sur 0.4 913.4 -1.2 86
2019-09-21 16:00:00 16.2 15 Sur 39 Sur 0.6 913.7 -1.4 83
2019-09-21 15:00:00 15.7 15 Sur 40 Sur 0.6 914 -1.3 87
2019-09-21 14:00:00 15.2 11 Sur 42 Sur 0.6 914.6 -0.6 87
2019-09-21 13:00:00 14.9 14 Sur 33 Sur 0.4 915.1 0.1 87
2019-09-21 12:00:00 14.5 12 Sur 33 Sudoeste 0.4 915.3 0.5 88
2019-09-21 11:00:00 14.9 11 Sur 32 Sudoeste 0 915.2 0.5 83
2019-09-21 10:00:00 14.7 10 Sur 27 Sudeste 0 915 0.2 82
2019-09-21 09:00:00 14.9 11 Sur 28 Sur 0 914.8 -0.4 77
2019-09-21 08:00:00 14.8 12 Sur 26 Sudoeste 0 914.7 -0.7 77
2019-09-21 07:00:00 14.5 7 Sur 24 Sur 0 914.8 -1.1 76
2019-09-21 06:00:00 14.5 11 Sur 27 Sur 0 915.2 -0.9 74
2019-09-21 05:00:00 14.8 13 Sur 26 Sur 0 915.4 -0.5 70
2019-09-21 04:00:00 14.9 10 Sur 31 Sur 0 915.9 -0.2 66
2019-09-21 03:00:00 16.5 12 Sur 30 Sudoeste 0 916.1 0 59
2019-09-21 02:00:00 16.9 16 Sudoeste 37 Sur 0 915.9 -0.5 63
2019-09-21 01:00:00 16.6 10 Sudoeste 19 Sudoeste 0 916.1 -0.3 67
2019-09-21 00:00:00 17.2 6 Sur 17 Sudoeste 0 916.1 0 62
2019-09-20 23:00:00 18.4 7 Sudoeste 16 Sudoeste 0 916.4 0.5 55
2019-09-20 22:00:00 18.9 6 Sur 11 Sudoeste 0 916.4 0.5 54
2019-09-20 21:00:00 20.3 6 Sudoeste 22 Sur 0 916.1 0.3 47
2019-09-20 20:00:00 21.7 13 Sur 28 Sudeste 0 915.9 -0.5 41
2019-09-20 19:00:00 23.7 11 Sur 40 Sur 0 915.9 -1.1 33
2019-09-20 18:00:00 25.3 15 Sur 36 Sur 0 915.8 -1.6 26
2019-09-20 17:00:00 25.6 11 Sur 35 Sur 0 916.4 -1.6 27
2019-09-20 16:00:00 26 12 Sur 30 Sudoeste 0 917 -1.5 26
2019-09-20 15:00:00 23.9 10 Sur 29 Sur 0 917.4 -1.7 38
2019-09-20 14:00:00 23.9 10 Sur 28 Sudoeste 0 918 -1.3 40
2019-09-20 13:00:00 22.7 4 Sudeste 11 Este 0 918.5 -0.6 53
2019-09-20 12:00:00 20.6 4 Este 13 Sudeste 0 919.1 0.2 58
2019-09-20 11:00:00 18.7 5 Este 14 Nordeste 0 919.3 0.5 67
2019-09-20 10:00:00 15.6 2 Sudeste 5 Sur 0 919.1 0.3 80
2019-09-20 09:00:00 13.2 3 Norte 8 Sudeste 0 918.9 0 86
2019-09-20 08:00:00 12.8 3 Sur 8 Sudeste 0 918.8 -0.5 87
2019-09-20 07:00:00 12.2 3 Sur 6 Sur 0 918.8 -0.9 87
2019-09-20 06:00:00 11.5 3 Sur 6 Sudoeste 0 918.9 -1.3 89
2019-09-20 05:00:00 11 3 Sur 5 Sudoeste 0 919.3 -1.1 88
2019-09-20 04:00:00 11 0 Calma 4 Sudoeste 0 919.7 -0.7 87
2019-09-20 03:00:00 11 2 Sudeste 5 Sudeste 0 920.2 -0.2 87
2019-09-20 02:00:00 11.1 3 Sudeste 6 Norte 0 920.4 -0.2 85
2019-09-20 01:00:00 12 2 Nordeste 8 Norte 0 920.4 0 84
2019-09-20 00:00:00 13 2 Sudoeste 5 Sur 0 920.4 0.4 81
2019-09-19 23:00:00 14.3 4 Sur 5 Sur 0 920.6 1.1 76
2019-09-19 22:00:00 16.2 3 Sudoeste 6 Sudoeste 0 920.4 1 70
2019-09-19 21:00:00 19.1 3 Sudeste 10 Oeste 0 920 0.5 59
2019-09-19 20:00:00 22.7 0 Calma 9 Sudeste 0 919.5 -0.5 47
2019-09-19 19:00:00 25 5 Sudeste 22 Sudeste 0 919.4 -1 34
2019-09-19 18:00:00 26 7 Sudeste 19 Sudeste 0 919.5 -1.4 30
2019-09-19 17:00:00 27.2 6 Sudeste 19 Este 0 920 -1.5 29
2019-09-19 16:00:00 26.2 7 Nordeste 19 Este 0 920.4 -1.8 31
2019-09-19 15:00:00 26.4 7 Este 22 Sudeste 0 920.9 -1.6 32
2019-09-19 14:00:00 25 8 Este 19 Sudeste 0 921.5 -1.2 35
2019-09-19 13:00:00 23.3 6 Sudeste 19 Este 0 922.2 -0.5 42
2019-09-19 12:00:00 21.1 6 Nordeste 17 Nordeste 0 922.5 0.1 51
2019-09-19 11:00:00 18.8 5 Nordeste 13 Este 0 922.7 0.5 67
2019-09-19 10:00:00 14.8 0 Calma 4 Sudeste 0 922.7 0.6 86
2019-09-19 09:00:00 11.1 0 Calma 3 Este 0 922.4 0.3 92
2019-09-19 08:00:00 9.9 0 Calma 4 Este 0 922.2 0 91
2019-09-19 07:00:00 10 2 Norte 5 Este 0 922.1 -0.3 90
2019-09-19 06:00:00 10.5 0 Calma 4 Sudeste 0 922.1 -0.4 90
2019-09-19 05:00:00 11.3 2 Norte 5 Sur 0 922.2 -0.3 90
2019-09-19 04:00:00 11.8 3 Sur 7 Sur 0 922.4 0.1 89
2019-09-19 03:00:00 12.2 0 Calma 4 Sudeste 0 922.5 0.4 86
2019-09-19 02:00:00 13.4 3 Sudeste 11 Sudeste 0 922.5 0.5 85
2019-09-19 01:00:00 13.2 0 Calma 4 Sudeste 0 922.3 0.4 84
2019-09-19 00:00:00 15.2 2 Sur 6 Sudeste 0 922.1 0.7 79
2019-09-18 23:00:00 16.6 0 Calma 7 Norte 0 922 1.1 74
2019-09-18 22:00:00 18.2 2 Sudeste 9 Sudeste 0 921.9 1.3 65
2019-09-18 21:00:00 19.6 3 Sudeste 7 Sudeste 0 921.4 0.9 60
2019-09-18 20:00:00 22.6 4 Este 18 Este 0 920.9 0.1 47
2019-09-18 19:00:00 25.1 11 Este 19 Este 0 920.6 -0.6 38
2019-09-18 18:00:00 26.5 4 Este 14 Sudeste 0 920.5 -1.1 29
2019-09-18 17:00:00 26.8 4 Norte 17 Este 0 920.8 -1.2 30
2019-09-18 16:00:00 25.9 9 Este 21 Sudeste 0 921.2 -1.1 32
2019-09-18 15:00:00 25.3 6 Este 17 Este 0 921.6 -0.7 33
2019-09-18 14:00:00 23.8 4 Sur 16 Este 0.2 922 -0.3 47
2019-09-18 13:00:00 22 6 Este 15 Este 0 922.3 0.3 57
2019-09-18 12:00:00 19.3 5 Este 12 Este 0 922.3 0.7 64
2019-09-18 11:00:00 15.6 0 Calma 8 Sudeste 0 922.3 1.1 89
2019-09-18 10:00:00 12.8 2 Sur 9 Este 0 922 0.9 93
2019-09-18 09:00:00 12.2 4 Oeste 9 Oeste 0 921.6 0.4 93
2019-09-18 08:00:00 12.6 6 Oeste 10 Oeste 0 921.2 0.1 93
2019-09-18 07:00:00 12 2 Sudeste 6 Sudeste 0 921.1 -0.1 93
2019-09-18 06:00:00 11.3 0 Calma 5 Oeste 0 921.2 -0.1 92
2019-09-18 05:00:00 11.5 3 Sudeste 8 Este 0 921.1 -0.7 93
2019-09-18 04:00:00 11.2 4 Sur 10 Sudeste 0 921.2 -0.6 92
2019-09-18 03:00:00 11.3 5 Sudoeste 8 Sudoeste 0 921.3 -0.7 91
2019-09-18 02:00:00 12.4 4 Norte 10 Norte 0 921.8 0.6 91
2019-09-18 01:00:00 12.8 4 Oeste 10 Este 0 921.8 0.4 88
2019-09-18 00:00:00 13.2 3 Este 14 Sudeste 0 922 1.1 87
2019-09-17 23:00:00 14.1 4 Sur 14 Sur 0 921.2 0.5 86
2019-09-17 22:00:00 14.2 4 Sur 17 Sur 0 921.4 1 87
2019-09-17 21:00:00 14.5 7 Sur 11 Sudoeste 0 920.9 0.8 87
2019-09-15 18:00:00 21 9 Este 24 Este 0 923.1 -2 54
2019-09-15 17:00:00 23.4 10 Este 26 Nordeste 0 923.2 -2.2 48
2019-09-15 16:00:00 21.5 9 Este 22 Nordeste 0 924.2 -1 61
2019-09-15 15:00:00 17.4 10 Este 17 Nordeste 1 925.1 -0.3 78
2019-09-15 14:00:00 15.6 5 Nordeste 36 Nordeste 2 925.4 -0.5 86
2019-09-15 13:00:00 19.1 13 Este 28 Este 0 925.2 -1.1 62
2019-09-15 12:00:00 19.6 6 Nordeste 18 Nordeste 0 925.4 0.4 70
2019-09-15 11:00:00 15.8 6 Este 14 Este 2.6 925.9 1 85
2019-09-15 10:00:00 14 4 Este 15 Sudeste 1.6 926.3 1.5 88
2019-09-15 09:00:00 13.3 3 Sudeste 15 Nordeste 0 925 0.1 83
2019-09-15 08:00:00 13.3 5 Nordeste 16 Nordeste 0 924.9 -0.3 83
2019-09-15 07:00:00 13 0 Calma 6 Sur 0 924.8 -0.6 85
2019-09-15 06:00:00 12.6 3 Sudeste 4 Sudeste 0 924.9 -1 81
2019-09-15 05:00:00 13.7 2 Norte 4 Sudeste 0 925.2 -1 78
2019-09-15 04:00:00 14.9 0 Calma 5 Nordeste 0 925.4 -1.1 72
2019-09-15 03:00:00 16.1 0 Calma 5 Noroeste 0 925.9 -0.3 67
2019-09-15 02:00:00 16.6 2 Sur 13 Este 0 926.2 -0.1 64
2019-09-15 01:00:00 16.7 4 Este 11 Este 0 926.5 0.5 61
2019-09-15 00:00:00 17.7 3 Este 15 Este 0 926.2 0.8 56
2019-09-14 23:00:00 19.4 8 Este 21 Este 0 926.3 1.7 49
2019-09-14 22:00:00 20.4 7 Este 26 Este 0 926 1.8 44
2019-09-14 21:00:00 21.3 10 Este 24 Sudeste 0 925.4 1.5 42
2019-09-14 20:00:00 22.5 11 Sudeste 27 Sudeste 0 924.6 0.5 38
2019-09-14 19:00:00 24.2 16 Sudeste 41 Nordeste 0 924.2 -0.5 31
2019-09-14 18:00:00 25.4 17 Este 40 Nordeste 0 923.9 -1.7 28
2019-09-14 17:00:00 26.2 19 Este 43 Sudeste 0 924.1 -2.2 28
2019-09-14 16:00:00 26.6 20 Este 48 Este 0 924.7 -2.2 28
2019-09-14 15:00:00 26.1 17 Nordeste 48 Este 0 925.6 -2.1 31
2019-09-14 14:00:00 25.4 15 Nordeste 37 Nordeste 0 926.3 -1.7 34
2019-09-14 13:00:00 23.8 15 Este 37 Este 0 926.9 -1.4 40
2019-09-14 12:00:00 21.5 17 Este 32 Nordeste 0 927.7 -0.6 48
2019-09-14 11:00:00 20.3 13 Nordeste 28 Nordeste 0 928 0.1 52
2019-09-14 10:00:00 18 13 Nordeste 34 Este 0 928.3 0.6 60
2019-09-14 09:00:00 13.6 2 Norte 5 Sudeste 0 928.3 0.3 77
2019-09-14 08:00:00 12.8 0 Calma 6 Sudeste 0 927.9 -0.1 77
2019-09-14 07:00:00 13.3 0 Calma 10 Este 0 927.7 -0.7 74
2019-09-14 06:00:00 14 4 Este 12 Este 0 928 -0.9 71
2019-09-14 05:00:00 14.5 3 Este 7 Este 0 928 -1.1 69
2019-09-14 04:00:00 15.4 2 Sudoeste 7 Norte 0 928.4 -0.9 67
2019-09-14 03:00:00 16.3 3 Nordeste 6 Norte 0 928.9 -0.5 64
2019-09-14 02:00:00 16.6 3 Nordeste 12 Sudeste 0 929.1 -0.1 63
2019-09-14 01:00:00 16.4 4 Este 10 Este 0 929.3 0.5 62
2019-09-14 00:00:00 16.9 5 Norte 17 Este 0 929.4 1.1 59
2019-09-13 23:00:00 18.2 9 Este 21 Sudeste 0 929.2 1.4 54
2019-09-13 22:00:00 18.9 10 Este 37 Este 0 928.8 1.5 50
2019-09-13 21:00:00 20 14 Este 37 Este 0 928.3 1.7 46
2019-09-13 20:00:00 21.7 17 Este 44 Este 0 927.8 0.9 35
2019-09-13 19:00:00 23.9 17 Sudeste 53 Sudeste 0 927.3 0.2 29
2019-09-13 18:00:00 28.4 18 Este 47 Este 0 926.6 -1.1 22
2019-09-13 17:00:00 28.8 22 Este 50 Este 0 926.9 -1.7 22
2019-09-13 16:00:00 29.1 15 Este 37 Sudeste 0 927.1 -2.4 21
2019-09-13 15:00:00 27.6 16 Este 39 Nordeste 0 927.7 -2.3 22
2019-09-13 14:00:00 27 16 Este 36 Este 0 928.6 -1.5 22
2019-09-13 13:00:00 25.6 16 Este 33 Este 0 929.5 -1 26
2019-09-13 12:00:00 23.6 15 Este 29 Este 0 930 -0.6 31
2019-09-13 11:00:00 21.1 13 Nordeste 29 Este 0 930.1 -0.9 39
2019-09-13 10:00:00 16.8 3 Nordeste 9 Este 0 930.5 -0.2 54
2019-09-13 09:00:00 12.2 3 Sur 6 Este 0 930.6 -0.2 72
2019-09-13 08:00:00 10.2 0 Calma 8 Sur 0 931 0 78
2019-09-13 07:00:00 10 5 Sudoeste 10 Sudeste 0 930.7 -0.5 78
2019-09-13 06:00:00 9.9 0 Calma 6 Sudeste 0 930.8 -0.4 78
2019-09-13 05:00:00 10.8 5 Sudoeste 8 Sudoeste 0 931 -0.1 77
2019-09-13 04:00:00 10.7 3 Oeste 6 Sudoeste 0 931.2 0.2 71
2019-09-13 03:00:00 12 5 Sudoeste 7 Sudoeste 0 931.2 0.3 69
2019-09-13 02:00:00 12.5 0 Calma 6 Norte 0 931.1 0.6 64
2019-09-13 01:00:00 13.8 4 Noroeste 6 Norte 0 931 0.8 60
2019-09-13 00:00:00 13.5 0 Calma 4 Norte 0 930.9 1.1 59
2019-09-12 23:00:00 14.9 2 Noroeste 5 Sur 0 930.5 0.6 55
2019-09-12 22:00:00 17.5 3 Sudoeste 5 Sudoeste 0 930.2 0.4 46
2019-09-12 21:00:00 21.7 0 Calma 19 Este 0 929.8 0.2 34
2019-09-12 20:00:00 26.1 9 Este 26 Este 0 929.9 -0.1 25
2019-09-12 19:00:00 27.4 10 Este 24 Nordeste 0 929.8 -0.9 22
2019-09-12 18:00:00 28 8 Este 23 Nordeste 0 929.6 -1.8 20
2019-09-12 17:00:00 28.1 9 Nordeste 24 Nordeste 0 930 -2 21
2019-09-12 16:00:00 27 10 Nordeste 22 Este 0 930.7 -1.8 24
2019-09-12 15:00:00 25.9 9 Nordeste 26 Este 0 931.4 -1.4 25
2019-09-12 14:00:00 23.1 14 Este 30 Este 0 932 -0.6 30
2019-09-12 13:00:00 22 12 Nordeste 27 Este 0 932.5 -0.1 33
2019-09-12 12:00:00 19.4 12 Este 22 Este 0 932.8 0.2 42
2019-09-12 11:00:00 16.7 10 Nordeste 21 Sudeste 0 932.6 0.4 54
2019-09-12 10:00:00 13.8 4 Norte 11 Nordeste 0 932.6 0.9 65
2019-09-12 09:00:00 9 0 Calma 5 Norte 0 932.6 1.2 80
2019-09-12 08:00:00 5.3 2 Noroeste 4 Sur 0 932.2 0.9 86
2019-09-12 07:00:00 5.5 2 Sur 5 Noroeste 0 931.7 0.4 87
2019-09-12 06:00:00 6.3 0 Calma 5 Sudoeste 0 931.4 -0.2 83
2019-09-12 05:00:00 7.2 2 Sudoeste 5 Sudoeste 0 931.3 -0.2 81
2019-09-12 04:00:00 8.8 0 Calma 7 Norte 0 931.3 -0.1 78
2019-09-12 03:00:00 9.7 4 Nordeste 13 Este 0 931.6 0.4 78
2019-09-12 02:00:00 11 6 Nordeste 12 Nordeste 0 931.5 0.9 73
2019-09-12 01:00:00 11.6 4 Nordeste 15 Este 0 931.4 1.6 70
2019-09-12 00:00:00 12.4 5 Nordeste 13 Nordeste 0 931.2 2.4 65
2019-09-11 23:00:00 13.8 5 Nordeste 20 Este 0 930.6 2.4 59
2019-09-11 22:00:00 15.7 6 Este 19 Este 0 929.8 2 50
2019-09-11 21:00:00 17.6 9 Este 26 Este 0 928.8 1.1 41
2019-09-11 20:00:00 20.4 12 Este 30 Nordeste 0 928.2 0.4 33
2019-09-11 19:00:00 23.1 15 Este 31 Nordeste 0 927.8 -0.2 28
2019-09-11 18:00:00 24.2 12 Nordeste 32 Este 0 927.7 -0.8 24
2019-09-11 17:00:00 24.4 10 Nordeste 34 Este 0 927.8 -1.1 24
2019-09-11 16:00:00 23.8 10 Este 34 Este 0 928 -1 26
2019-09-11 15:00:00 22.8 10 Este 35 Sudeste 0 928.5 -0.6 29
2019-09-11 14:00:00 22.1 13 Este 35 Sudeste 0 928.9 0.1 31
2019-09-11 13:00:00 20.6 14 Nordeste 35 Este 0 929 0.4 34
2019-09-11 12:00:00 19.3 13 Nordeste 29 Norte 0 929.1 0.9 41
2019-09-11 11:00:00 17.2 12 Nordeste 31 Nordeste 0 928.8 0.9 48
2019-09-11 10:00:00 13 8 Norte 17 Norte 0 928.6 1.2 62
2019-09-11 09:00:00 5.9 0 Calma 8 Sudeste 0 928.2 1.1 83
2019-09-11 08:00:00 3.9 3 Sur 7 Sudeste 0 927.9 0.7 85
2019-09-11 07:00:00 4.5 2 Nordeste 10 Sudeste 0 927.4 0.6 83
2019-09-11 06:00:00 4.8 3 Sudoeste 10 Sudoeste 0 927.1 0.5 81
2019-09-11 05:00:00 6 6 Sur 13 Sudoeste 0 927.2 0.8 81
2019-09-11 04:00:00 6.5 6 Sur 15 Sudoeste 0 926.8 0.5 78
2019-09-11 03:00:00 7 6 Sur 10 Sur 0 926.6 0.7 77
2019-09-11 02:00:00 8.2 4 Sudeste 14 Sudoeste 0 926.4 1.3 71
2019-09-11 01:00:00 8.4 3 Oeste 13 Noroeste 0 926.3 1.3 70
2019-09-11 00:00:00 9.4 4 Noroeste 18 Norte 0 925.9 1.8 65
2019-09-10 23:00:00 11.3 8 Norte 18 Norte 0 925.1 1.6 60
2019-09-10 22:00:00 12.6 5 Oeste 15 Noroeste 0 925 2 54
2019-09-10 21:00:00 14.5 6 Noroeste 25 Noroeste 0 924.1 1.5 48
2019-09-10 20:00:00 17.1 20 Norte 39 Norte 0 923.5 1 39
2019-09-10 19:00:00 19.8 13 Norte 36 Norte 0 923 0.4 31
2019-09-10 18:00:00 21.4 16 Norte 41 Noroeste 0 922.6 0 27
2019-09-10 17:00:00 21.8 17 Norte 47 Noroeste 0 922.5 -0.4 26
2019-09-10 16:00:00 20.4 23 Norte 45 Norte 0 922.6 -0.3 27
2019-09-10 15:00:00 21.6 21 Norte 39 Noroeste 0 922.6 -0.1 25
2019-09-10 14:00:00 20.5 17 Norte 30 Norte 0 922.9 0.8 25
2019-09-10 13:00:00 18.9 13 Norte 39 Norte 0 922.9 1.1 24
2019-09-10 12:00:00 18.4 13 Norte 27 Norte 0 922.7 1.4 28
2019-09-10 11:00:00 16.3 13 Norte 27 Norte 0 922.1 0.9 33
2019-09-10 10:00:00 13.6 8 Noroeste 26 Norte 0 921.8 0.8 45
2019-09-10 09:00:00 11.1 14 Norte 30 Noroeste 0 921.3 0.8 52
2019-09-10 08:00:00 10 18 Noroeste 39 Noroeste 0 921.2 0.6 53
2019-09-10 07:00:00 9.6 11 Norte 30 Norte 0 921 0.1 56
2019-09-10 06:00:00 8.4 2 Sudoeste 27 Norte 0 920.5 -0.4 62
2019-09-10 05:00:00 9.8 13 Norte 34 Norte 0 920.6 -0.3 58
2019-09-10 04:00:00 10.1 7 Noroeste 24 Noroeste 0 920.9 0.2 57
2019-09-10 03:00:00 11.3 10 Noroeste 23 Noroeste 0 920.9 0.2 62
2019-09-10 02:00:00 10.1 0 Calma 9 Sur 0 920.9 0.7 69
2019-09-10 01:00:00 12.4 4 Sudoeste 15 Oeste 0 920.7 1.1 61
2019-09-10 00:00:00 14.3 9 Oeste 26 Noroeste 0 920.7 1.3 54
2019-09-09 23:00:00 14.8 11 Oeste 32 Oeste 0 920.2 1.4 53
2019-09-09 22:00:00 16 14 Oeste 31 Oeste 0 919.6 0.9 50
2019-09-09 21:00:00 17.6 16 Oeste 35 Noroeste 0 919.4 0.9 40
2019-09-09 20:00:00 20.1 21 Oeste 40 Oeste 0 918.8 0.3 31
2019-09-09 19:00:00 22.8 19 Oeste 37 Noroeste 0 918.7 -0.1 26
2019-09-09 18:00:00 23.7 17 Oeste 34 Noroeste 0 918.5 -0.7 20
2019-09-09 17:00:00 24 19 Oeste 36 Oeste 0 918.5 -1.2 17
2019-09-09 16:00:00 23.6 16 Oeste 37 Sudoeste 0 918.8 -1.5 25
2019-09-09 15:00:00 23.4 18 Sudoeste 37 Sudoeste 0 919.2 -1.3 24
2019-09-09 14:00:00 24 16 Oeste 35 Sudoeste 0 919.7 -1.1 25
2019-09-09 13:00:00 22.3 13 Sudoeste 32 Sur 0 920.3 -0.7 32
2019-09-09 12:00:00 21 15 Sudoeste 29 Sudoeste 0 920.5 -0.7 38
2019-09-09 11:00:00 16.3 2 Noroeste 7 Sur 0 920.8 -0.6 53
2019-09-09 10:00:00 9.4 2 Nordeste 5 Sudeste 0 921 -0.2 76
2019-09-09 09:00:00 6.1 0 Calma 4 Sur 0 921.2 0 82
2019-09-09 08:00:00 4.6 0 Calma 6 Sur 0 921.4 -0.3 86
2019-09-09 07:00:00 4.3 4 Sur 5 Sudeste 0 921.2 -0.9 84
2019-09-09 06:00:00 4.5 3 Noroeste 6 Noroeste 0 921.2 -1.5 82
2019-09-09 05:00:00 5.9 0 Calma 4 Sur 0 921.7 -0.8 80
2019-09-09 04:00:00 6.5 3 Sudoeste 8 Sur 0 922.1 -0.2 75
2019-09-09 03:00:00 7.9 0 Calma 6 Sudeste 0 922.7 0.5 71
2019-09-09 02:00:00 9.6 3 Noroeste 9 Nordeste 0 922.5 0.5 65
2019-09-09 01:00:00 11.6 6 Oeste 17 Este 0 922.3 0.7 60
2019-09-09 00:00:00 13.4 2 Sudeste 7 Sudeste 0 922.2 0.9 52
2019-09-08 23:00:00 17 4 Oeste 15 Sur 0 922 1.2 39
2019-09-08 22:00:00 18.8 9 Sur 16 Sur 0 921.6 0.8 33
2019-09-08 21:00:00 20.7 4 Sur 9 Sur 0 921.3 0.4 32
2019-09-08 20:00:00 25.6 6 Sudeste 14 Sur 0 920.8 -0.3 22
2019-09-08 19:00:00 27 5 Sur 14 Sudeste 0 920.8 -0.9 19
2019-09-08 18:00:00 27.7 3 Sudeste 25 Nordeste 0 920.9 -1.6 17
2019-09-08 17:00:00 28 8 Norte 23 Sudeste 0 921.1 -1.9 18
2019-09-08 16:00:00 26.4 4 Sudeste 18 Este 0 921.7 -1.7 19
2019-09-08 15:00:00 25.1 5 Este 19 Nordeste 0 922.5 -1.4 25
2019-09-08 14:00:00 22.8 9 Este 21 Este 0 923 -1.3 28
2019-09-08 13:00:00 20.7 9 Este 24 Este 0 923.4 -0.8 38
2019-09-08 12:00:00 19.1 9 Nordeste 26 Este 0 923.9 -0.3 45
2019-09-08 11:00:00 15.8 12 Nordeste 24 Nordeste 0 924.3 0.2 53
2019-09-08 10:00:00 12.8 3 Nordeste 6 Este 0 924.2 0.3 64
2019-09-08 09:00:00 7.2 3 Sudeste 5 Sudoeste 0 924.2 0.3 80
2019-09-08 08:00:00 4.1 2 Sur 5 Sur 0 924.1 0.2 86
2019-09-08 07:00:00 5.1 3 Oeste 5 Sudoeste 0 923.9 -0.2 83
2019-09-08 06:00:00 6.8 0 Calma 5 Sur 0 923.9 -0.6 81
2019-09-08 05:00:00 7.3 0 Calma 7 Norte 0 923.9 -0.6 78
2019-09-08 04:00:00 8.7 3 Norte 5 Norte 0 924.1 -0.4 75
2019-09-08 03:00:00 8.9 0 Calma 8 Nordeste 0 924.5 0.1 74
2019-09-08 02:00:00 9.7 2 Norte 8 Nordeste 0 924.5 0.5 69
2019-09-08 01:00:00 11.3 5 Norte 10 Norte 0 924.5 1.1 61
2019-09-08 00:00:00 13.1 5 Noroeste 15 Este 0 924.4 1.5 49
2019-09-07 23:00:00 14.6 6 Este 12 Este 0 924 1.3 40
2019-09-07 22:00:00 15.8 2 Sudeste 6 Sudeste 0 923.4 0.6 31
2019-09-07 21:00:00 18.9 3 Sur 16 Este 0 922.9 -0.1 23
2019-09-07 20:00:00 23.1 9 Este 26 Este 0 922.7 -0.7 14
2019-09-07 19:00:00 24.2 12 Este 32 Sudeste 0 922.8 -0.9 14
2019-09-07 18:00:00 24.6 14 Este 36 Nordeste 0 923 -1.2 14
2019-09-07 17:00:00 24.3 16 Este 37 Este 0 923.4 -1.5 14
2019-09-07 16:00:00 24.1 16 Este 40 Este 0 923.7 -1.6 15
2019-09-07 15:00:00 23 15 Este 42 Nordeste 0 924.2 -1.7 17
2019-09-07 14:00:00 20.8 14 Nordeste 37 Nordeste 0 924.9 -1.4 22
2019-09-07 13:00:00 19.6 13 Nordeste 39 Nordeste 0 925.3 -1.1 24
2019-09-07 12:00:00 17 18 Nordeste 39 Nordeste 0 925.9 -0.4 28
2019-09-07 11:00:00 14.5 16 Este 35 Este 0 926.3 0.3 43
2019-09-07 10:00:00 11.3 13 Nordeste 28 Nordeste 0 926.4 0.6 64
2019-09-07 09:00:00 7.1 3 Noroeste 5 Norte 0 926.3 0.3 82
2019-09-07 08:00:00 4.7 2 Noroeste 7 Sudeste 0 926 -0.2 88
2019-09-07 07:00:00 4.7 0 Calma 5 Nordeste 0 925.8 -0.6 88
2019-09-07 06:00:00 4.9 3 Norte 9 Nordeste 0 926 -0.2 86
2019-09-07 05:00:00 5.7 4 Norte 8 Nordeste 0 926.2 -0.2 83
2019-09-07 04:00:00 7.2 3 Norte 18 Este 0 926.4 0 77
2019-09-07 03:00:00 8.6 10 Este 21 Este 0 926.2 -0.3 74
2019-09-07 02:00:00 8.4 4 Nordeste 12 Nordeste 0 926.4 -0.1 70
2019-09-07 01:00:00 9.8 5 Nordeste 13 Nordeste 0 926.4 0.6 65
2019-09-07 00:00:00 11.6 3 Nordeste 17 Este 0 926.5 1.7 57
2019-09-06 23:00:00 13.4 9 Este 23 Este 0 926.5 2.2 50
2019-09-06 22:00:00 15.3 12 Este 30 Este 0 925.8 1.5 43
2019-09-06 21:00:00 17.5 13 Este 35 Este 0 924.8 0.5 35
2019-09-06 20:00:00 20.6 13 Este 28 Sudeste 0 924.3 -0.3 31
2019-09-06 19:00:00 21.6 14 Este 30 Nordeste 0 924.3 -0.7 29
2019-09-06 18:00:00 22.3 13 Este 35 Este 0 924.3 -1.5 27
2019-09-06 17:00:00 22.1 18 Este 42 Este 0 924.6 -1.6 25
2019-09-06 16:00:00 22 15 Este 37 Este 0 925 -1.7 26
2019-09-06 15:00:00 20.8 17 Este 40 Este 0 925.8 -1.2 29
2019-09-06 14:00:00 19.6 17 Nordeste 42 Este 0 926.2 -1 32
2019-09-06 13:00:00 17.7 17 Este 36 Nordeste 0 926.7 -0.2 38
2019-09-06 12:00:00 16.3 16 Este 34 Este 0 927 0.3 46
2019-09-06 11:00:00 14.3 18 Este 44 Este 0 927.2 0.4 55
2019-09-06 10:00:00 11.4 9 Nordeste 21 Este 0 926.9 0.4 69
2019-09-06 09:00:00 6.4 0 Calma 3 Sur 0 926.7 0.3 86
2019-09-06 08:00:00 3.4 3 Sudeste 6 Este 0 926.8 0 87
2019-09-06 07:00:00 4.4 2 Oeste 6 Norte 0 926.5 -0.4 89
2019-09-06 06:00:00 4.6 2 Norte 5 Norte 0 926.4 -0.7 86
2019-09-06 05:00:00 5.5 3 Norte 6 Norte 0 926.8 -0.7 83
2019-09-06 04:00:00 7.2 2 Sur 6 Sur 0 926.9 -0.7 82
2019-09-06 03:00:00 8.5 2 Nordeste 10 Nordeste 0 927.1 -0.6 78
2019-09-06 02:00:00 9.7 5 Nordeste 12 Nordeste 0 927.5 -0.1 73
2019-09-06 01:00:00 11.3 5 Nordeste 22 Este 0 927.6 0.6 67
2019-09-06 00:00:00 12.9 13 Nordeste 28 Este 0 927.7 1.6 62
2019-09-05 23:00:00 14.2 10 Este 27 Este 0 927.6 2.1 57
2019-09-05 22:00:00 15.8 10 Este 28 Este 0 927 1.4 47
2019-09-05 21:00:00 18 15 Este 38 Este 0 926.1 0.4 41
2019-09-05 20:00:00 21.6 10 Este 31 Este 0 925.5 -0.4 28
2019-09-05 19:00:00 22.4 12 Este 33 Sudeste 0 925.6 -0.9 26
2019-09-05 18:00:00 22.9 15 Este 36 Nordeste 0 925.7 -1.4 26
2019-09-05 17:00:00 22.9 15 Este 32 Nordeste 0 925.9 -1.6 29
2019-09-05 16:00:00 22.7 12 Este 36 Este 0 926.5 -1.4 28
2019-09-05 15:00:00 21.7 17 Este 37 Este 0 927.1 -0.9 29
2019-09-05 14:00:00 21.1 14 Nordeste 38 Nordeste 0 927.5 -0.5 28
2019-09-05 13:00:00 19.8 15 Nordeste 36 Este 0 927.9 0.1 33
2019-09-05 12:00:00 17.9 18 Este 40 Nordeste 0 928 0.4 42
2019-09-05 11:00:00 16.9 13 Nordeste 40 Norte 0 928 0.9 43
2019-09-05 10:00:00 14.5 11 Nordeste 27 Nordeste 0 927.8 1.2 56
2019-09-05 09:00:00 11.9 5 Nordeste 11 Este 0 927.6 1.4 71
2019-09-05 08:00:00 8.9 3 Este 8 Este 0 927.1 0.9 83
2019-09-05 07:00:00 9 3 Nordeste 8 Nordeste 0 926.6 0.5 84
2019-09-05 06:00:00 9.7 3 Norte 7 Nordeste 0 926.2 0.1 81
2019-09-05 05:00:00 11.2 3 Norte 14 Nordeste 0 926.2 0 76
2019-09-05 04:00:00 12.6 6 Este 14 Este 0 926.1 0.1 69
2019-09-05 03:00:00 12.9 4 Este 16 Este 0 926.1 0.4 71
2019-09-05 02:00:00 13.9 6 Este 18 Este 0 926.2 0.9 67
2019-09-05 01:00:00 15.3 10 Este 21 Este 0 926 1.4 61
2019-09-05 00:00:00 17.2 7 Nordeste 22 Nordeste 0 925.7 2 51
2019-09-04 23:00:00 19.1 11 Nordeste 25 Nordeste 0 925.3 3 44
2019-09-04 22:00:00 21 10 Nordeste 37 Norte 0 924.6 2.5 38
2019-09-04 21:00:00 24.2 11 Nordeste 42 Nordeste 0 923.7 1.5 29
2019-09-04 20:00:00 28.6 9 Este 24 Sudeste 0 922.3 -0.1 19
2019-09-04 19:00:00 30.4 12 Sudeste 29 Sudeste 0 922.1 -0.8 16
2019-09-04 18:00:00 30.9 12 Sudeste 27 Sudeste 0 922.2 -1.3 16
2019-09-04 17:00:00 31.7 6 Sur 23 Norte 0 922.4 -1.6 15
2019-09-04 16:00:00 31.8 9 Norte 23 Noroeste 0 922.9 -1.4 15
2019-09-04 15:00:00 29.6 7 Sudeste 25 Este 0 923.5 -1.4 20
2019-09-04 14:00:00 28.8 8 Sudeste 23 Este 0 924 -1 23
2019-09-04 13:00:00 27.7 5 Este 15 Nordeste 0 924.3 -0.7 26
2019-09-04 12:00:00 25.2 4 Nordeste 11 Sudeste 0 924.9 -0.1 28
2019-09-04 11:00:00 21.8 4 Este 10 Nordeste 0 925 0 36
2019-09-04 10:00:00 17.2 0 Calma 5 Sudeste 0 925 0.3 53
2019-09-04 09:00:00 11.3 0 Calma 5 Sudeste 0 925 0.2 72
2019-09-04 08:00:00 7.1 0 Calma 3 Sudeste 0 925 0.2 81
2019-09-04 07:00:00 7.9 3 Sur 7 Sur 0 924.7 -0.4 79
2019-09-04 06:00:00 8.3 0 Calma 6 Sur 0 924.8 -0.5 79
2019-09-04 05:00:00 9.2 2 Este 5 Sur 0 924.8 -0.4 75
2019-09-04 04:00:00 10.2 0 Calma 5 Sur 0 925.1 0.2 73
2019-09-04 03:00:00 11.5 2 Noroeste 11 Sudeste 0 925.3 0.3 69
2019-09-04 02:00:00 12.7 4 Sudeste 6 Sudeste 0 925.2 0.3 65
2019-09-04 01:00:00 15 3 Sudoeste 7 Sur 0 924.9 0.5 57
2019-09-04 00:00:00 17.8 4 Sudoeste 9 Sudoeste 0 925 0.9 48
2019-09-03 23:00:00 18.1 3 Sudoeste 10 Oeste 0 924.9 1 47
2019-09-03 22:00:00 21.2 5 Sudeste 14 Sudoeste 0 924.4 0.3 37
2019-09-03 21:00:00 25.4 8 Sudoeste 13 Sudoeste 0 924.1 0 27
2019-09-03 20:00:00 29.4 7 Sudoeste 18 Oeste 0 923.9 -0.5 20
2019-09-03 19:00:00 30.4 10 Oeste 20 Noroeste 0 924.1 -0.8 19
2019-09-03 18:00:00 30.8 9 Sur 24 Sudoeste 0 924.1 -1.6 17
2019-09-03 17:00:00 31.4 7 Norte 21 Sur 0 924.4 -1.9 18
2019-09-03 16:00:00 30.3 5 Noroeste 20 Norte 0 924.9 -2.1 21
2019-09-03 15:00:00 28.3 3 Oeste 18 Nordeste 0 925.7 -1.8 22
2019-09-03 14:00:00 25.7 7 Sudeste 17 Sudeste 0 926.3 -1.5 24
2019-09-03 13:00:00 23 6 Nordeste 19 Este 0 927 -0.8 26
2019-09-03 12:00:00 20.4 8 Nordeste 24 Este 0 927.5 -0.2 36
2019-09-03 11:00:00 17.8 8 Nordeste 23 Este 0 927.8 0.4 46
2019-09-03 10:00:00 14.4 7 Este 17 Este 0 927.8 0.9 57
2019-09-03 09:00:00 8.7 0 Calma 4 Sur 0 927.7 0.8 76
2019-09-03 08:00:00 4.9 3 Sur 5 Sur 0 927.4 0.6 84
2019-09-03 07:00:00 6.2 2 Oeste 5 Sudoeste 0 926.9 -0.1 79
2019-09-03 06:00:00 8.1 0 Calma 5 Sudoeste 0 926.9 -0.4 75
2019-09-03 05:00:00 9.1 0 Calma 8 Este 0 926.8 -0.2 75
2019-09-03 04:00:00 10 0 Calma 6 Este 0 927 0.2 74
2019-09-03 03:00:00 10.7 2 Norte 8 Este 0 927.3 0.9 71
2019-09-03 02:00:00 12.3 3 Nordeste 8 Este 0 927 1.4 67
2019-09-03 01:00:00 14.2 6 Este 18 Nordeste 0 926.8 2 60
2019-09-03 00:00:00 15.8 5 Nordeste 22 Este 0 926.4 2.5 52
2019-09-02 23:00:00 17.6 6 Este 16 Este 0 925.6 2.1 43
2019-09-02 22:00:00 19 2 Sudeste 6 Sudeste 0 924.8 1.3 38
2019-09-02 21:00:00 22.5 3 Sudeste 18 Este 0 923.9 0.4 31
2019-09-02 20:00:00 25.3 9 Este 24 Este 0 923.5 -0.2 26
2019-09-02 19:00:00 26.2 11 Este 28 Sudeste 0 923.5 -0.5 25
2019-09-02 18:00:00 26.7 11 Este 32 Este 0 923.5 -1 25
2019-09-02 17:00:00 26.5 10 Nordeste 27 Nordeste 0 923.7 -1.2 26
2019-09-02 16:00:00 25.4 13 Este 30 Este 0 924 -1.4 29
2019-09-02 15:00:00 24.6 9 Nordeste 31 Este 0 924.5 -0.9 31
2019-09-02 14:00:00 22.6 14 Este 33 Nordeste 0 924.9 -0.7 35
2019-09-02 13:00:00 20.8 15 Nordeste 39 Nordeste 0 925.4 -0.1 43
2019-09-02 12:00:00 19.1 13 Este 36 Nordeste 0 925.4 0.1 49
2019-09-02 11:00:00 16.8 10 Nordeste 29 Nordeste 0 925.6 0.9 57
2019-09-02 10:00:00 13.9 14 Este 28 Nordeste 0 925.5 1.4 66
2019-09-02 09:00:00 11.3 4 Nordeste 10 Este 0 925.3 1.3 77
2019-09-02 08:00:00 9 2 Este 8 Este 0 924.7 0.6 84
2019-09-02 07:00:00 9.2 0 Calma 7 Este 0 924.1 -0.1 84
2019-09-02 06:00:00 9.4 2 Nordeste 6 Nordeste 0 924 -0.3 83
2019-09-02 05:00:00 9.9 2 Norte 6 Nordeste 0 924.1 -0.2 81
2019-09-02 04:00:00 10.8 3 Nordeste 7 Nordeste 0 924.2 0.4 77
2019-09-02 03:00:00 12.1 4 Nordeste 14 Nordeste 0 924.3 1 73
2019-09-02 02:00:00 13.5 5 Nordeste 19 Nordeste 0 924.3 1.7 68
2019-09-02 01:00:00 14.5 7 Nordeste 24 Nordeste 0 923.8 1.8 66
2019-09-02 00:00:00 15.9 8 Nordeste 25 Nordeste 0 923.3 2.7 61
2019-09-01 23:00:00 17.9 9 Nordeste 23 Nordeste 0 922.6 3.2 56
2019-09-01 22:00:00 19.6 10 Nordeste 32 Este 0 922 2.8 49
2019-09-01 21:00:00 22.6 12 Nordeste 31 Nordeste 0 920.6 1.3 41
2019-09-01 20:00:00 26.4 10 Este 27 Este 0 919.4 0.1 31
2019-09-01 19:00:00 27.3 6 Este 23 Este 0 919.2 -0.8 29
2019-09-01 18:00:00 27.2 9 Nordeste 22 Nordeste 0 919.3 -1.2 30
2019-09-01 17:00:00 28.7 9 Este 22 Este 0 919.3 -1.7 27
2019-09-01 16:00:00 28.1 7 Nordeste 24 Nordeste 0 920 -1.5 29
2019-09-01 15:00:00 26.5 8 Nordeste 25 Sudeste 0 920.5 -1.3 31
2019-09-01 14:00:00 25.2 7 Nordeste 23 Este 0 921 -0.7 45
2019-09-01 13:00:00 23.2 8 Este 23 Este 0 921.5 -0.2 50
2019-09-01 12:00:00 20.8 9 Nordeste 22 Este 0 921.8 0.2 58
2019-09-01 11:00:00 18.6 5 Nordeste 15 Nordeste 0 921.7 0.3 68
2019-09-01 10:00:00 16.1 0 Calma 10 Noroeste 0 921.7 0.7 77
2019-09-01 09:00:00 12.4 3 Norte 8 Sudeste 0 921.6 0.6 87
2019-09-01 08:00:00 10.9 6 Norte 8 Norte 0 921.4 0.3 85
2019-09-01 07:00:00 12 0 Calma 5 Sur 0 921 -0.1 82
2019-09-01 06:00:00 10.8 5 Sur 7 Sudeste 0 921 -0.4 85
2019-09-01 05:00:00 11.2 0 Calma 8 Noroeste 0 921.1 -0.5 78
2019-09-01 04:00:00 13.8 3 Noroeste 7 Sudeste 0 921.1 0.3 74
2019-09-01 03:00:00 14.8 3 Nordeste 7 Sur 0 921.4 0.8 68
2019-09-01 02:00:00 14.5 3 Sur 10 Norte 0 921.6 1.2 72
2019-09-01 01:00:00 17 0 Calma 16 Sudoeste 0 920.8 0.7 58
2019-09-01 00:00:00 18.3 7 Sur 12 Sur 0 920.6 0.8 55
2019-08-31 23:00:00 20 4 Sudeste 18 Oeste 0 920.4 0.7 46
2019-08-31 22:00:00 24.1 10 Oeste 17 Oeste 0 920.1 0.5 35
2019-08-31 21:00:00 25.7 8 Oeste 29 Oeste 0 919.8 0.2 28
2019-08-31 20:00:00 28.6 16 Oeste 30 Sudoeste 0 919.7 -0.1 23
2019-08-31 19:00:00 29.9 17 Oeste 32 Oeste 0 919.6 -0.6 21
2019-08-31 18:00:00 30.8 19 Oeste 38 Oeste 0 919.6 -1.2 17
2019-08-31 17:00:00 30.9 17 Oeste 39 Oeste 0 919.8 -1.4 20
2019-08-31 16:00:00 31 14 Oeste 36 Noroeste 0 920.2 -1.4 21
2019-08-31 15:00:00 30.7 11 Oeste 36 Sudoeste 0 920.8 -1.1 23
2019-08-31 14:00:00 29.6 15 Sudoeste 35 Sudoeste 0 921.2 -0.8 25
2019-08-31 13:00:00 29.2 10 Sudoeste 33 Sur 0 921.6 -0.4 26
2019-08-31 12:00:00 27.4 16 Sudoeste 30 Sudoeste 0 921.9 -0.1 28
2019-08-31 11:00:00 25.6 3 Noroeste 6 Noroeste 0 922 0.3 40
2019-08-31 10:00:00 19.9 0 Calma 7 Sudeste 0 922 0.3 53
2019-08-31 09:00:00 14.8 0 Calma 6 Sur 0 922 0.6 71
2019-08-31 08:00:00 11.5 4 Sur 6 Sur 0 921.7 0.2 80
2019-08-31 07:00:00 11.8 3 Sur 6 Sudeste 0 921.7 -0.1 77
2019-08-31 06:00:00 13.3 0 Calma 5 Norte 0 921.4 -0.7 72
2019-08-31 05:00:00 13.7 0 Calma 10 Sudeste 0 921.5 -0.9 70
2019-08-31 04:00:00 13.4 5 Sudeste 8 Sudeste 0 921.8 -0.7 69
2019-08-31 03:00:00 14.7 4 Sur 8 Sudeste 0 922.1 -0.7 63
2019-08-31 02:00:00 15.9 3 Sudeste 10 Sur 0 922.4 -0.6 55
2019-08-31 01:00:00 18.8 3 Sur 11 Sur 0 922.5 0.1 44
2019-08-31 00:00:00 21 5 Sur 15 Sur 0 922.8 0.7 35
2019-08-30 23:00:00 20.6 10 Sur 21 Sur 0 923 1.1 37
2019-08-30 22:00:00 24.6 9 Noroeste 19 Oeste 0 922.4 0.2 26
2019-08-30 21:00:00 27 6 Oeste 19 Sudoeste 0 922.1 -0.2 27
2019-08-30 20:00:00 30.1 9 Oeste 27 Oeste 0 921.9 -0.7 21
2019-08-30 19:00:00 31.2 13 Oeste 30 Sudoeste 0 922.2 -0.9 17
2019-08-30 18:00:00 30.7 13 Sudoeste 41 Sudoeste 0 922.3 -1.1 15
2019-08-30 17:00:00 31.6 19 Sudoeste 42 Sudoeste 0 922.6 -1.5 15
2019-08-30 16:00:00 31.4 18 Sudoeste 43 Sudoeste 0 923.1 -1.6 17
2019-08-30 15:00:00 31.1 15 Sudoeste 38 Sudoeste 0 923.4 -1.8 23
2019-08-30 14:00:00 30.1 15 Sudoeste 33 Oeste 0 924.1 -1.2 26
2019-08-30 13:00:00 28.7 3 Nordeste 14 Este 0 924.7 -0.6 35
2019-08-30 12:00:00 25.2 4 Oeste 11 Este 0 925.2 -0.2 50
2019-08-30 11:00:00 22.2 4 Este 11 Nordeste 0 925.3 0.2 60
2019-08-30 10:00:00 18.5 3 Este 6 Este 0 925.3 0.4 68
2019-08-30 09:00:00 13.4 2 Sudeste 4 Sudeste 0 925.4 0.7 80
2019-08-30 08:00:00 10.6 0 Calma 4 Sur 0 925.1 0.6 87
2019-08-30 07:00:00 10.8 0 Calma 4 Sudeste 0 924.9 0.5 84
2019-08-30 06:00:00 10.9 0 Calma 6 Norte 0 924.7 -0.1 82
2019-08-30 05:00:00 11.9 3 Sur 6 Sudeste 0 924.5 0 80
2019-08-30 04:00:00 13.5 3 Noroeste 6 Noroeste 0 924.4 0.3 74
2019-08-30 03:00:00 13.2 2 Norte 10 Este 0 924.8 0.8 74
2019-08-30 02:00:00 14.3 4 Sur 7 Sudeste 0 924.5 0.8 69
2019-08-30 01:00:00 15.6 2 Este 7 Oeste 0 924.1 1 60
2019-08-30 00:00:00 17.7 5 Sudeste 10 Sudeste 0 924 1.2 51
2019-08-29 23:00:00 19.7 4 Este 14 Sudoeste 0 923.7 1.1 44
2019-08-29 22:00:00 23.9 10 Sudoeste 16 Sudoeste 0 923.1 0.7 30
2019-08-29 21:00:00 26.4 9 Oeste 22 Oeste 0 922.8 0.3 26
2019-08-29 20:00:00 29.4 12 Sudoeste 24 Sudoeste 0 922.6 0.1 26
2019-08-29 19:00:00 30.7 7 Sudoeste 24 Sudoeste 0 922.4 -0.3 15
2019-08-29 18:00:00 31.2 15 Sudoeste 31 Sudoeste 0 922.5 -0.6 9
2019-08-29 17:00:00 31.2 14 Sudoeste 34 Sudoeste 0 922.5 -1 17
2019-08-29 16:00:00 30.9 15 Sudoeste 31 Sur 0 922.7 -1.1 21
2019-08-29 15:00:00 30.1 10 Sur 33 Sur 0 923.1 -1 24
2019-08-29 14:00:00 29.1 9 Sudoeste 28 Sur 0 923.5 -0.7 29
2019-08-29 13:00:00 27.4 7 Este 17 Sur 0 923.8 -0.2 41
2019-08-29 12:00:00 24.8 5 Norte 12 Norte 0 924.1 0.3 53
2019-08-29 11:00:00 21.6 3 Este 12 Este 0 924.2 0.7 61
2019-08-29 10:00:00 18.4 0 Calma 5 Sudeste 0 924 0.9 68
2019-08-29 09:00:00 13.9 2 Sudeste 4 Sudeste 0 923.8 1 81
2019-08-29 08:00:00 10.9 2 Sudeste 5 Sur 0 923.5 0.7 86
2019-08-29 07:00:00 11.6 0 Calma 7 Sudeste 0 923.1 0.2 85
2019-08-29 06:00:00 12.5 0 Calma 9 Sudoeste 0 922.8 0.1 83
2019-08-29 05:00:00 13.3 5 Sur 20 Nordeste 0 922.8 0.3 81
2019-08-29 04:00:00 13.5 4 Sudeste 8 Sudeste 0 922.9 0.6 79
2019-08-29 03:00:00 15.4 0 Calma 6 Sudoeste 0 922.7 0.6 71
2019-08-29 02:00:00 17.2 4 Sur 10 Sur 0 922.5 0.8 64
2019-08-29 01:00:00 17.5 5 Sur 10 Sudoeste 0 922.3 0.9 64
2019-08-29 00:00:00 17.6 5 Sudeste 9 Sudeste 0 922.1 1.2 63
2019-08-28 23:00:00 19.1 3 Noroeste 9 Sur 0 921.7 0.8 57
2019-08-28 22:00:00 20.5 5 Sur 10 Sudoeste 0 921.4 0.4 52
2019-08-28 21:00:00 25.1 5 Sudoeste 18 Oeste 0 920.9 -0.1 37
2019-08-28 20:00:00 27.8 9 Oeste 23 Oeste 0 920.9 -0.2 30
2019-08-28 19:00:00 28.6 12 Oeste 34 Oeste 0 921 -0.5 30
2019-08-28 18:00:00 29.1 11 Sudoeste 29 Sudoeste 0 921 -0.8 30
2019-08-28 17:00:00 28.9 14 Sudoeste 31 Sudoeste 0 921.1 -1 30
2019-08-28 16:00:00 28.4 12 Sudoeste 31 Sudoeste 0 921.5 -0.9 31
2019-08-28 15:00:00 27.9 12 Sudoeste 34 Sudoeste 0 921.8 -0.7 32
2019-08-28 14:00:00 26.6 14 Oeste 28 Sudoeste 0 922.1 -0.4 40
2019-08-28 13:00:00 26.2 13 Sudoeste 25 Sur 0 922.4 -0.1 39
2019-08-28 12:00:00 24.9 4 Noroeste 9 Oeste 0 922.5 0.1 48
2019-08-28 11:00:00 21.8 3 Este 9 Este 0 922.5 0.2 57
2019-08-28 10:00:00 18.6 3 Norte 5 Norte 0 922.5 0.3 69
2019-08-28 09:00:00 13.7 0 Calma 5 Sudeste 0 922.4 0.4 84
2019-08-28 08:00:00 10.3 0 Calma 4 Sudeste 0 922.3 0.4 87
2019-08-28 07:00:00 11.1 2 Oeste 6 Sudoeste 0 922.2 0.5 86
2019-08-28 06:00:00 11.7 4 Sudeste 7 Sur 0 922 0.4 85
2019-08-28 05:00:00 12.5 2 Sudoeste 7 Este 0 921.9 0 84
2019-08-28 04:00:00 13.4 0 Calma 5 Noroeste 0 921.7 -0.3 80
2019-08-28 03:00:00 14.7 2 Noroeste 9 Sudoeste 0 921.6 -0.1 75
2019-08-28 02:00:00 16 4 Sudoeste 11 Sudoeste 0 921.9 0.5 72
2019-08-28 01:00:00 16.5 5 Sur 10 Sudeste 0 922 1.1 67
2019-08-28 00:00:00 17.4 5 Sudeste 12 Sudoeste 0 921.7 1.3 60
2019-08-27 23:00:00 20.6 9 Sudoeste 15 Sudoeste 0 921.4 1.4 48
2019-08-27 22:00:00 22.2 10 Sudoeste 15 Sudoeste 0 920.9 1 42
2019-08-27 21:00:00 24.3 9 Sudoeste 19 Sudoeste 0 920.4 0.7 35
2019-08-27 20:00:00 25.3 10 Sur 21 Sudoeste 0 920 0.1 34
2019-08-27 19:00:00 26.3 9 Sur 26 Sudoeste 0 919.9 -0.1 33
2019-08-27 18:00:00 28.2 8 Oeste 25 Sudoeste 0 919.7 -0.7 29
2019-08-27 17:00:00 28.3 9 Sudoeste 24 Sur 0 919.9 -0.9 28
2019-08-27 16:00:00 27.7 3 Sudoeste 25 Oeste 0 920 -1.4 29
2019-08-27 15:00:00 26.6 8 Noroeste 27 Oeste 0 920.4 -1.3 36
2019-08-27 14:00:00 25.1 7 Sudoeste 18 Oeste 0 920.8 -0.8 37
2019-08-27 13:00:00 24.7 4 Nordeste 14 Este 0 921.4 0.1 40
2019-08-27 12:00:00 22.3 4 Nordeste 14 Norte 0 921.7 0.7 48
2019-08-27 11:00:00 19.5 5 Este 13 Nordeste 0 921.6 0.9 57
2019-08-27 10:00:00 16.2 2 Sur 6 Sudeste 0 921.3 1.1 71
2019-08-27 09:00:00 12.4 0 Calma 6 Sudeste 0 921 0.8 87
2019-08-27 08:00:00 9.7 4 Noroeste 7 Sudoeste 0 920.7 0.6 89
2019-08-27 07:00:00 10.2 4 Sur 6 Sudeste 0 920.2 0.3 88
2019-08-27 06:00:00 11.4 3 Sur 6 Sudeste 0 920.2 0.3 88
2019-08-27 05:00:00 9.7 5 Sudeste 10 Sudeste 0 920.1 0 88
2019-08-27 04:00:00 10.4 2 Sudeste 9 Sudeste 0 919.9 -0.1 87
2019-08-27 03:00:00 11.3 3 Sur 7 Sudeste 0 919.9 0 86
2019-08-27 02:00:00 11.9 5 Sur 9 Sudeste 0 920.1 0.5 82
2019-08-27 01:00:00 12.3 5 Sur 9 Sur 0 920 0.3 80
2019-08-27 00:00:00 14.3 5 Sudeste 13 Sudeste 0 919.9 1 71
2019-08-26 23:00:00 14.9 4 Sudeste 9 Norte 0 919.6 1.2 70
2019-08-26 22:00:00 16.8 5 Sudeste 7 Sudeste 0 919.7 0.9 62
2019-08-26 21:00:00 21.3 3 Oeste 17 Noroeste 0 918.9 -0.3 44
2019-08-26 20:00:00 23.8 9 Oeste 18 Oeste 0 918.4 -1 33
2019-08-26 19:00:00 24.6 10 Sudoeste 23 Oeste 0 918.8 -0.7 31
2019-08-26 18:00:00 24.2 8 Oeste 30 Sudoeste 0 919.2 -1 34
2019-08-26 17:00:00 24.1 10 Sudoeste 28 Oeste 0 919.4 -1.7 34
2019-08-26 16:00:00 23.8 8 Sudoeste 22 Oeste 0 919.5 -1.6 40
2019-08-26 15:00:00 20.5 4 Oeste 17 Sudoeste 0 920.2 -0.5 58
2019-08-26 14:00:00 18.2 5 Oeste 12 Noroeste 0 921.1 0.9 68
2019-08-26 13:00:00 17.2 7 Sudoeste 21 Sur 0 921.1 1.3 71
2019-08-26 12:00:00 17.6 6 Sur 22 Sudeste 0 920.7 0.4 68
2019-08-26 11:00:00 18.3 7 Nordeste 16 Nordeste 0 920.2 0 73
2019-08-26 10:00:00 15.5 8 Norte 20 Norte 0 919.8 0.2 92
2019-08-26 09:00:00 14.6 5 Noroeste 10 Noroeste 0 920.3 1.4 92
2019-08-26 08:00:00 13.6 4 Sudeste 15 Sur 0 920.2 -0.2 90
2019-08-26 07:00:00 14.4 3 Sudeste 28 Sur 0 919.6 -2.1 90
2019-08-26 06:00:00 14.4 12 Sudeste 33 Nordeste 0.2 918.9 -2.9 90
2019-08-26 05:00:00 14.9 4 Noroeste 12 Oeste 0.8 920.4 -1.3 89
2019-08-26 04:00:00 14.9 9 Noroeste 19 Norte 0.6 921.7 0.5 89
2019-08-26 03:00:00 15.1 6 Norte 16 Sudeste 0.2 921.8 0.7 86
2019-08-26 02:00:00 14.3 5 Sur 12 Sur 0 921.7 -0.8 89
2019-08-26 01:00:00 14.5 4 Sur 8 Oeste 0 921.2 -0.6 87
2019-08-26 00:00:00 15.1 7 Sudeste 16 Norte 0.4 921.1 0 87
2019-08-25 23:00:00 15.1 5 Sur 10 Sudoeste 0.4 922.5 0.3 87
2019-08-25 22:00:00 15.1 3 Sur 21 Noroeste 0.2 921.8 0.6 87
2019-08-25 21:00:00 15.7 12 Noroeste 30 Oeste 1.2 921.1 1 83
2019-08-25 20:00:00 16.4 9 Oeste 40 Noroeste 1.4 922.2 1.6 82
2019-08-25 19:00:00 19 17 Oeste 31 Noroeste 0 921.2 1 66
2019-08-25 18:00:00 19.6 9 Oeste 18 Noroeste 0 920.1 0.2 66
2019-08-25 17:00:00 18.3 10 Noroeste 63 Noroeste 0 920.6 0.7 71
2019-08-25 16:00:00 24 7 Nordeste 40 Este 0.4 920.2 -0.2 43
2019-08-25 15:00:00 28.6 13 Nordeste 34 Nordeste 0 919.9 -0.8 26
2019-08-25 14:00:00 29.9 8 Noroeste 21 Norte 0 919.9 -1 25
2019-08-25 13:00:00 28.6 8 Norte 16 Norte 0 920.4 -0.5 28
2019-08-25 12:00:00 25.5 4 Este 12 Nordeste 0 920.7 0.1 35
2019-08-25 11:00:00 23 5 Nordeste 13 Nordeste 0 920.9 0.2 41
2019-08-25 10:00:00 21 2 Este 5 Este 0 920.9 0.3 50
2019-08-25 09:00:00 15.9 2 Norte 5 Noroeste 0 920.6 0 71
2019-08-25 08:00:00 14.2 2 Este 6 Sudeste 0 920.7 0 72
2019-08-25 07:00:00 13.7 2 Nordeste 8 Sur 0 920.6 -0.2 73
2019-08-25 06:00:00 14.2 0 Calma 5 Este 0 920.6 -0.2 70
2019-08-25 05:00:00 15.3 4 Sudoeste 8 Sudeste 0 920.7 -0.4 68
2019-08-25 04:00:00 16 0 Calma 6 Sudeste 0 920.8 -0.3 64
2019-08-25 03:00:00 17.1 4 Este 8 Sudeste 0 920.8 -0.4 60
2019-08-25 02:00:00 17.6 0 Calma 4 Sudoeste 0 921.1 -0.3 59
2019-08-25 01:00:00 18.9 0 Calma 7 Sur 0 921.1 -0.1 54
2019-08-25 00:00:00 21.3 5 Sur 9 Sur 0 921.2 0.3 45
2019-08-24 23:00:00 21 6 Sudeste 18 Oeste 0 921.4 0.6 46
2019-08-24 22:00:00 24.6 11 Oeste 19 Oeste 0 921.2 0.1 34
2019-08-24 21:00:00 26.5 10 Noroeste 23 Noroeste 0 920.9 -0.5 31
2019-08-24 20:00:00 30 9 Noroeste 30 Noroeste 0 920.8 -0.9 24
2019-08-24 19:00:00 31.1 15 Noroeste 31 Oeste 0 921.1 -0.9 20
2019-08-24 18:00:00 31.8 15 Oeste 32 Noroeste 0 921.4 -0.7 20
2019-08-24 17:00:00 32.2 14 Oeste 37 Sudoeste 0 921.7 -0.9 20
2019-08-24 16:00:00 30 17 Sudoeste 32 Sudoeste 0 922 -0.9 20
2019-08-24 15:00:00 31.1 14 Oeste 35 Oeste 0 922.1 -1.2 21
2019-08-24 14:00:00 31.1 12 Sur 33 Sur 0 922.6 -0.9 19
2019-08-24 13:00:00 30.6 6 Noroeste 18 Norte 0 922.9 -0.5 22
2019-08-24 12:00:00 27.9 2 Sudoeste 10 Nordeste 0 923.3 0 24
2019-08-24 11:00:00 25.1 5 Este 13 Este 0 923.5 0.4 29
2019-08-24 10:00:00 20.3 0 Calma 7 Sudeste 0 923.4 0.6 48
2019-08-24 09:00:00 15.1 0 Calma 5 Sudeste 0 923.3 0.4 63
2019-08-24 08:00:00 11.3 3 Este 9 Sudeste 0 923.1 -0.1 72
2019-08-24 07:00:00 11 4 Sur 8 Sudeste 0 922.8 -0.4 72
2019-08-24 06:00:00 12.8 3 Sur 6 Sur 0 922.9 -0.2 67
2019-08-24 05:00:00 13 0 Calma 6 Sur 0 923.2 0.4 67
2019-08-24 04:00:00 14.5 3 Sudeste 6 Norte 0 923.2 0.6 62
2019-08-24 03:00:00 16.3 3 Sur 22 Este 0 923.1 0.4 55
2019-08-24 02:00:00 17.9 3 Sudoeste 13 Sur 0 922.8 0.4 51
2019-08-24 01:00:00 18.5 6 Sur 10 Sur 0 922.6 0.6 44
2019-08-24 00:00:00 19.3 2 Sudoeste 11 Sur 0 922.7 1.1 40
2019-08-23 23:00:00 20.5 6 Sur 10 Sur 0 922.4 0.9 33
2019-08-23 22:00:00 23 2 Sur 12 Oeste 0 922 0.2 29
2019-08-23 21:00:00 28.4 6 Oeste 23 Noroeste 0 921.6 -0.4 19
2019-08-23 20:00:00 31.7 5 Oeste 19 Sudoeste 0 921.5 -0.9 14
2019-08-23 19:00:00 32.1 8 Sudoeste 30 Oeste 0 921.8 -0.9 13
2019-08-23 18:00:00 33 8 Noroeste 31 Noroeste 0 922 -1.1 13
2019-08-23 17:00:00 32.4 13 Oeste 23 Sur 0 922.4 -1.2 15
2019-08-23 16:00:00 32.1 9 Oeste 30 Norte 0 922.7 -1.5 14
2019-08-23 15:00:00 32.2 6 Nordeste 23 Sur 0 923.1 -1.5 15
2019-08-23 14:00:00 31 6 Noroeste 15 Este 0 923.6 -1.2 17
2019-08-23 13:00:00 28 7 Este 19 Este 0 924.2 -0.6 18
2019-08-23 12:00:00 25.6 6 Este 14 Este 0 924.6 -0.2 22
2019-08-23 11:00:00 22.2 7 Este 15 Este 0 924.8 0.1 28
2019-08-23 10:00:00 17.4 0 Calma 6 Sudeste 0 924.8 0.3 44
2019-08-23 09:00:00 10.7 2 Sudeste 4 Sur 0 924.8 0.4 65
2019-08-23 08:00:00 6.2 0 Calma 3 Sur 0 924.7 0.2 75
2019-08-23 07:00:00 6.6 3 Sur 4 Sur 0 924.5 -0.1 73
2019-08-23 06:00:00 7.3 0 Calma 6 Sur 0 924.4 -0.4 68
2019-08-23 05:00:00 7.6 4 Sur 5 Sur 0 924.5 -0.3 68
2019-08-23 04:00:00 8.7 0 Calma 6 Sur 0 924.6 0.3 65
2019-08-23 03:00:00 9.2 3 Sudeste 6 Este 0 924.8 0.4 61
2019-08-23 02:00:00 10.7 2 Sur 8 Este 0 924.8 0.6 57
2019-08-23 01:00:00 12.1 3 Sudeste 8 Sudeste 0 924.3 0.5 50
2019-08-23 00:00:00 13.8 3 Sudeste 5 Sudeste 0 924.4 0.9 45